createdAt,value
2022-09-20T00:01:13.522Z,2.33
2022-09-20T00:03:43.295Z,2.37
2022-09-20T00:06:13.002Z,2.37
2022-09-20T00:08:41.191Z,2.07
2022-09-20T00:11:11.063Z,2.10
2022-09-20T00:13:41.487Z,1.90
2022-09-20T00:16:11.210Z,2.03
2022-09-20T00:18:39.407Z,1.90
2022-09-20T00:21:07.767Z,1.90
2022-09-20T00:23:36.413Z,1.93
2022-09-20T00:26:05.475Z,2.00
2022-09-20T00:28:33.548Z,2.37
2022-09-20T00:31:02.924Z,2.13
2022-09-20T00:33:44.766Z,2.43
2022-09-20T00:36:12.885Z,1.93
2022-09-20T00:38:40.816Z,1.67
2022-09-20T00:41:08.983Z,1.80
2022-09-20T00:43:39.153Z,2.13
2022-09-20T00:46:21.208Z,3.03
2022-09-20T00:48:50.549Z,2.17
2022-09-20T00:51:24.675Z,1.87
2022-09-20T00:53:55.605Z,2.03
2022-09-20T00:56:28.779Z,3.03
2022-09-20T00:59:02.848Z,2.30
2022-09-20T01:01:32.311Z,2.27
2022-09-20T01:04:01.135Z,2.30
2022-09-20T01:06:29.894Z,2.77
2022-09-20T01:09:02.472Z,2.80
2022-09-20T01:11:31.108Z,2.20
2022-09-20T01:13:59.147Z,2.10
2022-09-20T01:16:28.081Z,1.70
2022-09-20T01:19:00.806Z,2.10
2022-09-20T01:21:29.887Z,2.07
2022-09-20T01:24:03.158Z,1.90
2022-09-20T01:26:55.472Z,2.20
2022-09-20T01:29:50.536Z,2.67
2022-09-20T01:32:23.577Z,2.30
2022-09-20T01:34:55.894Z,2.37
2022-09-20T01:37:27.797Z,2.20
2022-09-20T01:40:03.868Z,2.07
2022-09-20T01:42:37.182Z,1.60
2022-09-20T01:45:16.530Z,1.73
2022-09-20T01:47:52.227Z,1.63
2022-09-20T01:50:30.887Z,2.13
2022-09-20T01:53:31.213Z,1.97
2022-09-20T01:56:19.544Z,1.70
2022-09-20T01:59:24.299Z,3.23
2022-09-20T02:02:40.935Z,1.90
2022-09-20T02:05:23.782Z,2.20
2022-09-20T02:08:19.269Z,1.93
2022-09-20T02:11:09.222Z,2.40
2022-09-20T02:13:58.809Z,2.00
2022-09-20T02:16:44.040Z,1.80
2022-09-20T02:19:45.834Z,1.80
2022-09-20T02:22:29.925Z,1.70
2022-09-20T02:25:08.585Z,1.77
2022-09-20T02:27:44.587Z,2.03
2022-09-20T02:30:24.750Z,1.83
2022-09-20T02:33:07.761Z,2.10
2022-09-20T02:35:43.130Z,1.73
2022-09-20T02:38:33.787Z,1.80
2022-09-20T02:41:34.302Z,1.50
2022-09-20T02:44:08.333Z,1.67
2022-09-20T02:46:42.111Z,2.00
2022-09-20T02:49:17.915Z,1.70
2022-09-20T02:51:52.800Z,1.93
2022-09-20T02:54:31.467Z,1.83
2022-09-20T02:57:04.573Z,2.13
2022-09-20T02:59:41.316Z,1.80
2022-09-20T03:02:19.422Z,1.80
2022-09-20T03:05:01.175Z,2.07
2022-09-20T03:07:37.325Z,1.57
2022-09-20T03:10:17.881Z,1.90
2022-09-20T03:12:56.037Z,1.70
2022-09-20T03:15:31.815Z,1.77
2022-09-20T03:18:09.131Z,1.90
2022-09-20T03:20:48.580Z,1.80
2022-09-20T03:23:31.486Z,1.73
2022-09-20T03:26:08.883Z,1.60
2022-09-20T03:28:55.437Z,1.83
2022-09-20T03:31:36.182Z,1.60
2022-09-20T03:34:13.526Z,1.60
2022-09-20T03:36:57.925Z,1.70
2022-09-20T03:40:04.201Z,1.50
2022-09-20T03:42:33.600Z,1.97
2022-09-20T03:45:49.523Z,1.80
2022-09-20T03:48:44.339Z,1.40
2022-09-20T03:51:24.383Z,1.60
2022-09-20T03:54:07.208Z,1.90
2022-09-20T03:57:00.142Z,1.80
2022-09-20T03:59:42.899Z,2.10
2022-09-20T04:02:27.010Z,1.60
2022-09-20T04:04:59.388Z,1.87
2022-09-20T04:07:39.834Z,1.90
2022-09-20T04:10:18.136Z,1.60
2022-09-20T04:13:00.330Z,1.70
2022-09-20T04:15:38.237Z,1.60
2022-09-20T04:18:19.300Z,1.80
2022-09-20T04:20:51.867Z,1.90
2022-09-20T04:23:35.852Z,2.03
2022-09-20T04:26:05.078Z,1.70
2022-09-20T04:28:39.544Z,2.30
2022-09-20T04:31:25.387Z,2.10
2022-09-20T04:33:58.584Z,1.60
2022-09-20T04:36:51.181Z,1.93
2022-09-20T04:39:34.906Z,1.80
2022-09-20T04:42:35.261Z,1.80
2022-09-20T04:45:35.699Z,1.90
2022-09-20T04:48:35.133Z,2.00
2022-09-20T04:51:27.956Z,2.30
2022-09-20T04:54:23.886Z,2.37
2022-09-20T04:57:08.258Z,2.17
2022-09-20T04:59:55.167Z,2.43
2022-09-20T05:02:48.016Z,2.30
2022-09-20T05:05:55.886Z,2.20
2022-09-20T05:08:52.490Z,2.23
2022-09-20T05:11:43.168Z,2.00
2022-09-20T05:14:25.808Z,2.10
2022-09-20T05:17:14.723Z,2.13
2022-09-20T05:19:55.684Z,2.40
2022-09-20T05:23:03.581Z,2.43
2022-09-20T05:25:56.920Z,2.53
2022-09-20T05:28:32.423Z,2.33
2022-09-20T05:31:06.909Z,2.83
2022-09-20T05:33:44.895Z,2.70
2022-09-20T05:36:18.925Z,2.70
2022-09-20T05:38:51.604Z,3.00
2022-09-20T05:41:29.767Z,3.57
2022-09-20T05:44:07.308Z,2.80
2022-09-20T05:46:44.302Z,2.60
2022-09-20T05:49:21.390Z,2.43
2022-09-20T05:52:04.773Z,2.33
2022-09-20T05:54:59.895Z,2.27
2022-09-20T05:57:37.946Z,2.40
2022-09-20T06:00:11.177Z,2.53
2022-09-20T06:02:53.963Z,3.10
2022-09-20T06:05:33.224Z,2.63
2022-09-20T06:08:24.531Z,2.10
2022-09-20T06:11:20.424Z,2.43
2022-09-20T06:14:05.827Z,2.40
2022-09-20T06:16:43.864Z,3.27
2022-09-20T06:19:20.954Z,2.30
2022-09-20T06:21:53.176Z,2.40
2022-09-20T06:24:34.007Z,2.33
2022-09-20T06:27:09.756Z,2.33
2022-09-20T06:29:41.748Z,2.30
2022-09-20T06:32:09.635Z,2.63
2022-09-20T06:34:37.909Z,2.50
2022-09-20T06:37:38.047Z,2.37
2022-09-20T06:40:37.263Z,2.40
2022-09-20T06:43:06.992Z,2.87
2022-09-20T06:45:35.956Z,2.73
2022-09-20T06:48:04.152Z,2.63
2022-09-20T06:50:33.626Z,2.30
2022-09-20T06:53:02.284Z,2.40
2022-09-20T06:55:34.666Z,2.87
2022-09-20T06:58:02.497Z,2.40
2022-09-20T07:00:31.765Z,2.37
2022-09-20T07:02:59.801Z,2.23
2022-09-20T07:05:27.676Z,2.73
2022-09-20T07:07:58.522Z,2.70
2022-09-20T07:10:28.004Z,2.53
2022-09-20T07:12:59.321Z,2.50
2022-09-20T07:15:28.388Z,2.90
2022-09-20T07:17:57.729Z,2.90
2022-09-20T07:20:25.718Z,2.50
2022-09-20T07:22:54.575Z,2.70
2022-09-20T07:25:23.085Z,2.90
2022-09-20T07:27:52.085Z,2.77
2022-09-20T07:30:21.429Z,2.57
2022-09-20T07:32:49.973Z,2.70
2022-09-20T07:35:19.359Z,2.23
2022-09-20T07:37:47.886Z,2.33
2022-09-20T07:40:16.371Z,2.63
2022-09-20T07:42:45.954Z,2.60
2022-09-20T07:45:13.824Z,2.40
2022-09-20T07:47:44.791Z,2.47
2022-09-20T07:50:12.738Z,2.80
2022-09-20T07:52:41.957Z,2.60
2022-09-20T07:55:10.368Z,3.00
2022-09-20T07:57:39.247Z,2.20
2022-09-20T08:00:09.277Z,2.47
2022-09-20T08:02:44.991Z,2.07
2022-09-20T08:05:12.960Z,2.57
2022-09-20T08:07:42.210Z,2.40
2022-09-20T08:10:11.070Z,2.27
2022-09-20T08:15:26.761Z,2.37
2022-09-20T08:17:54.698Z,3.17
2022-09-20T08:20:22.558Z,2.20
2022-09-20T08:23:12.527Z,2.03
2022-09-20T08:25:40.421Z,1.90
2022-09-20T08:28:08.368Z,2.50
2022-09-20T08:30:36.213Z,2.07
2022-09-20T08:33:06.834Z,2.17
2022-09-20T08:35:38.258Z,3.00
2022-09-20T08:40:59.265Z,2.07
2022-09-20T08:43:30.682Z,2.40
2022-09-20T08:46:05.549Z,2.03
2022-09-20T08:48:34.944Z,1.90
2022-09-20T08:51:05.614Z,2.10
2022-09-20T08:53:36.077Z,2.03
2022-09-20T08:56:04.675Z,1.70
2022-09-20T08:58:32.558Z,1.90
2022-09-20T09:01:00.432Z,2.03
2022-09-20T09:03:29.176Z,1.70
2022-09-20T09:05:58.127Z,1.83
2022-09-20T09:08:29.265Z,1.83
2022-09-20T09:11:00.067Z,1.67
2022-09-20T09:13:32.866Z,1.90
2022-09-20T09:16:02.745Z,1.60
2022-09-20T09:18:35.001Z,2.30
2022-09-20T09:21:05.831Z,2.10
2022-09-20T09:23:42.600Z,1.90
2022-09-20T09:26:21.357Z,2.07
2022-09-20T09:29:04.644Z,1.87
2022-09-20T09:31:32.850Z,1.70
2022-09-20T09:34:01.050Z,1.90
2022-09-20T09:36:29.229Z,1.80
2022-09-20T09:39:16.546Z,2.13
2022-09-20T09:41:46.370Z,1.83
2022-09-20T09:44:23.427Z,2.80
2022-09-20T09:46:53.461Z,1.50
2022-09-20T09:49:24.075Z,1.70
2022-09-20T09:52:07.290Z,1.87
2022-09-20T09:54:38.170Z,1.70
2022-09-20T09:57:41.080Z,1.53
2022-09-20T10:00:20.008Z,1.57
2022-09-20T10:03:27.467Z,1.30
2022-09-20T10:06:07.571Z,1.80
2022-09-20T10:08:44.630Z,1.60
2022-09-20T10:11:25.648Z,1.50
2022-09-20T10:14:05.575Z,1.50
2022-09-20T10:16:45.872Z,1.40
2022-09-20T10:19:22.791Z,1.47
2022-09-20T10:21:57.036Z,1.40
2022-09-20T10:24:39.655Z,1.60
2022-09-20T10:27:23.162Z,1.40
2022-09-20T10:30:03.784Z,1.60
2022-09-20T10:32:45.791Z,1.40
2022-09-20T10:35:27.491Z,1.40
2022-09-20T10:38:13.510Z,1.50
2022-09-20T10:41:09.135Z,1.60
2022-09-20T10:43:55.223Z,1.50
2022-09-20T10:46:37.516Z,1.53
2022-09-20T10:49:19.209Z,1.60
2022-09-20T10:51:55.562Z,1.40
2022-09-20T10:54:38.996Z,1.30
2022-09-20T10:57:26.824Z,1.80
2022-09-20T11:00:03.309Z,1.60
2022-09-20T11:02:50.441Z,1.53
2022-09-20T11:05:31.728Z,1.40
2022-09-20T11:08:10.386Z,1.87
2022-09-20T11:10:43.869Z,1.53
2022-09-20T11:13:20.838Z,3.37
2022-09-20T11:15:55.865Z,1.73
2022-09-20T11:18:31.669Z,1.50
2022-09-20T11:21:07.493Z,1.27
2022-09-20T11:23:45.485Z,2.20
2022-09-20T11:26:21.973Z,1.53
2022-09-20T11:28:55.037Z,1.40
2022-09-20T11:31:28.972Z,1.67
2022-09-20T11:34:03.380Z,1.27
2022-09-20T11:36:39.383Z,1.23
2022-09-20T11:39:16.429Z,1.27
2022-09-20T11:41:45.027Z,1.17
2022-09-20T11:44:17.119Z,1.60
2022-09-20T11:46:52.583Z,1.30
2022-09-20T11:49:27.738Z,1.33
2022-09-20T11:52:17.255Z,1.70
2022-09-20T11:55:19.711Z,1.30
2022-09-20T11:57:59.212Z,1.23
2022-09-20T12:00:31.015Z,1.40
2022-09-20T12:02:59.851Z,1.40
2022-09-20T12:05:33.613Z,1.30
2022-09-20T12:08:04.976Z,1.10
2022-09-20T12:10:35.468Z,1.27
2022-09-20T12:13:05.667Z,1.30
2022-09-20T12:15:36.230Z,1.80
2022-09-20T12:18:31.134Z,1.50
2022-09-20T12:21:07.226Z,1.10
2022-09-20T12:23:46.578Z,1.10
2022-09-20T12:26:39.499Z,1.20
2022-09-20T12:29:52.911Z,1.30
2022-09-20T12:32:58.293Z,1.57
2022-09-20T12:36:26.483Z,1.40
2022-09-20T12:39:03.101Z,1.33
2022-09-20T12:41:47.491Z,1.40
2022-09-20T12:44:29.559Z,1.53
2022-09-20T12:47:01.053Z,1.20
2022-09-20T12:49:53.208Z,1.23
2022-09-20T12:52:56.076Z,1.30
2022-09-20T12:55:38.335Z,1.43
2022-09-20T12:58:18.257Z,1.07
2022-09-20T13:00:48.575Z,1.27
2022-09-20T13:03:35.227Z,1.20
2022-09-20T13:06:24.702Z,1.20
2022-09-20T13:08:57.798Z,1.40
2022-09-20T13:11:31.142Z,1.30
2022-09-20T13:14:02.983Z,1.20
2022-09-20T13:16:34.367Z,1.40
2022-09-20T13:19:05.879Z,1.17
2022-09-20T13:21:37.616Z,1.17
2022-09-20T13:24:06.300Z,1.23
2022-09-20T13:26:41.836Z,1.20
2022-09-20T13:29:20.072Z,1.73
2022-09-20T13:31:48.492Z,1.20
2022-09-20T13:34:22.548Z,1.43
2022-09-20T13:36:56.414Z,1.30
2022-09-20T13:39:32.439Z,1.20
2022-09-20T13:42:06.943Z,1.50
2022-09-20T13:44:37.312Z,1.60
2022-09-20T13:47:23.178Z,1.70
2022-09-20T13:49:51.146Z,1.70
2022-09-20T13:52:26.185Z,1.47
2022-09-20T13:54:55.108Z,1.50
2022-09-20T13:57:28.175Z,1.47
2022-09-20T13:59:57.900Z,1.70
2022-09-20T14:02:29.929Z,1.60
2022-09-20T14:05:01.253Z,1.50
2022-09-20T14:07:30.945Z,1.80
2022-09-20T14:10:00.135Z,1.80
2022-09-20T14:12:29.902Z,1.70
2022-09-20T14:14:59.354Z,1.83
2022-09-20T14:17:31.239Z,1.57
2022-09-20T14:19:59.117Z,1.50
2022-09-20T14:22:28.650Z,1.37
2022-09-20T14:25:02.276Z,1.60
2022-09-20T14:27:32.810Z,1.90
2022-09-20T14:30:00.912Z,1.50
2022-09-20T14:32:48.046Z,1.50
2022-09-20T14:35:18.454Z,1.90
2022-09-20T14:37:49.515Z,1.67
2022-09-20T14:40:25.895Z,1.60
2022-09-20T14:42:58.782Z,1.53
2022-09-20T14:45:30.728Z,1.80
2022-09-20T14:48:06.734Z,1.80
2022-09-20T14:50:39.877Z,1.90
2022-09-20T14:53:26.494Z,1.57
2022-09-20T14:56:00.483Z,1.60
2022-09-20T14:58:30.883Z,1.40
2022-09-20T15:01:05.162Z,1.50
2022-09-20T15:03:35.455Z,1.57
2022-09-20T15:06:04.105Z,1.60
2022-09-20T15:08:32.197Z,1.50
2022-09-20T15:11:00.944Z,1.73
2022-09-20T15:13:30.361Z,1.40
2022-09-20T15:15:59.188Z,1.23
2022-09-20T15:18:31.110Z,1.30
2022-09-20T15:20:58.934Z,1.30
2022-09-20T15:23:26.861Z,1.23
2022-09-20T15:25:56.171Z,1.10
2022-09-20T15:28:24.432Z,1.40
2022-09-20T15:30:53.711Z,1.10
2022-09-20T15:33:22.526Z,1.40
2022-09-20T15:35:50.701Z,1.80
2022-09-20T15:38:19.846Z,1.30
2022-09-20T15:40:49.932Z,1.33
2022-09-20T15:43:21.914Z,1.30
2022-09-20T15:45:51.729Z,1.17
2022-09-20T15:48:23.881Z,1.10
2022-09-20T15:51:02.772Z,1.10
2022-09-20T15:53:34.103Z,1.07
2022-09-20T15:56:03.648Z,1.00
2022-09-20T15:58:36.241Z,1.30
2022-09-20T16:01:06.428Z,1.27
2022-09-20T16:03:37.084Z,1.20
2022-09-20T16:06:08.335Z,1.27
2022-09-20T16:08:38.386Z,1.30
2022-09-20T16:11:07.699Z,2.27
2022-09-20T16:13:37.582Z,1.40
2022-09-20T16:16:07.296Z,1.47
2022-09-20T16:18:51.400Z,1.70
2022-09-20T16:21:20.817Z,1.43
2022-09-20T16:23:50.382Z,1.60
2022-09-20T16:26:19.692Z,1.67
2022-09-20T16:28:48.687Z,1.37
2022-09-20T16:31:34.546Z,1.43
2022-09-20T16:34:05.608Z,1.80
2022-09-20T16:36:34.008Z,1.77
2022-09-20T16:39:03.132Z,1.40
2022-09-20T16:41:31.938Z,1.90
2022-09-20T16:43:59.856Z,1.73
2022-09-20T16:46:28.133Z,2.20
2022-09-20T16:48:56.806Z,1.87
2022-09-20T16:51:33.128Z,2.17
2022-09-20T16:54:03.221Z,1.90
2022-09-20T16:56:33.847Z,1.87
2022-09-20T16:59:02.334Z,1.70
2022-09-20T17:01:31.462Z,1.60
2022-09-20T17:03:59.726Z,1.90
2022-09-20T17:06:29.253Z,2.63
2022-09-20T17:08:59.143Z,2.00
2022-09-20T17:11:30.620Z,1.80
2022-09-20T17:13:59.029Z,1.77
2022-09-20T17:16:29.453Z,8.07
2022-09-20T17:18:59.217Z,10.60
2022-09-20T17:21:30.050Z,7.93
2022-09-20T17:24:00.532Z,8.90
2022-09-20T17:26:31.361Z,8.13
2022-09-20T17:28:59.537Z,5.73
2022-09-20T17:31:30.070Z,4.40
2022-09-20T17:34:00.097Z,2.73
2022-09-20T17:36:31.543Z,2.37
2022-09-20T17:39:04.488Z,2.33
2022-09-20T17:41:33.765Z,2.20
2022-09-20T17:44:07.849Z,2.37
2022-09-20T17:46:37.627Z,2.87
2022-09-20T17:49:07.704Z,2.80
2022-09-20T17:51:38.790Z,7.13
2022-09-20T17:54:07.589Z,7.70
2022-09-20T17:56:36.334Z,6.93
2022-09-20T17:59:06.574Z,5.13
2022-09-20T18:01:36.892Z,5.57
2022-09-20T18:04:06.520Z,7.87
2022-09-20T18:06:37.442Z,4.77
2022-09-20T18:09:07.078Z,3.50
2022-09-20T18:11:37.868Z,2.80
2022-09-20T18:14:07.626Z,2.97
2022-09-20T18:16:37.076Z,2.80
2022-09-20T18:19:05.731Z,3.53
2022-09-20T18:21:35.578Z,3.37
2022-09-20T18:24:06.834Z,2.43
2022-09-20T18:26:35.916Z,3.27
2022-09-20T18:29:06.563Z,2.70
2022-09-20T18:31:36.776Z,2.57
2022-09-20T18:34:06.663Z,3.30
2022-09-20T18:36:36.517Z,3.60
2022-09-20T18:39:06.544Z,2.63
2022-09-20T18:41:36.044Z,2.57
2022-09-20T18:44:07.000Z,2.50
2022-09-20T18:46:37.883Z,2.30
2022-09-20T18:49:08.590Z,2.77
2022-09-20T18:51:39.679Z,3.70
2022-09-20T18:54:10.979Z,2.87
2022-09-20T18:56:39.647Z,3.27
2022-09-20T18:59:14.028Z,2.80
2022-09-20T19:02:13.433Z,2.50
2022-09-20T19:05:08.374Z,2.80
2022-09-20T19:07:45.760Z,2.83
2022-09-20T19:10:23.283Z,2.50
2022-09-20T19:12:58.592Z,2.53
2022-09-20T19:15:44.624Z,2.17
2022-09-20T19:18:31.831Z,2.73
2022-09-20T19:21:11.736Z,3.17
2022-09-20T19:23:52.499Z,2.97
2022-09-20T19:26:23.985Z,3.50
2022-09-20T19:28:55.018Z,3.20
2022-09-20T19:31:25.573Z,3.20
2022-09-20T19:33:55.214Z,3.87
2022-09-20T19:36:23.849Z,4.00
2022-09-20T19:39:02.023Z,3.60
2022-09-20T19:41:44.900Z,3.87
2022-09-20T19:44:27.766Z,5.10
2022-09-20T19:47:17.739Z,4.97
2022-09-20T19:49:54.397Z,6.83
2022-09-20T19:52:23.618Z,4.90
2022-09-20T19:54:52.125Z,6.40
2022-09-20T19:57:24.165Z,4.67
2022-09-20T19:59:53.158Z,5.13
2022-09-20T20:02:21.439Z,4.33
2022-09-20T20:04:49.936Z,4.20
2022-09-20T20:07:28.600Z,5.17
2022-09-20T20:10:04.322Z,6.23
2022-09-20T20:12:39.365Z,4.60
2022-09-20T20:15:18.188Z,5.40
2022-09-20T20:17:56.379Z,5.70
2022-09-20T20:20:31.207Z,4.43
2022-09-20T20:23:35.293Z,4.40
2022-09-20T20:26:08.495Z,3.70
2022-09-20T20:28:38.253Z,3.80
2022-09-20T20:31:07.633Z,3.90
2022-09-20T20:33:35.720Z,4.07
2022-09-20T20:36:03.852Z,3.80
2022-09-20T20:38:32.520Z,4.13
2022-09-20T20:41:04.690Z,4.60
2022-09-20T20:43:34.703Z,3.77
2022-09-20T20:46:04.783Z,3.70
2022-09-20T20:48:33.189Z,4.00
2022-09-20T20:51:02.557Z,3.83
2022-09-20T20:53:32.199Z,3.57
2022-09-20T20:56:05.626Z,3.10
2022-09-20T20:58:34.285Z,3.20
2022-09-20T21:01:11.338Z,3.80
2022-09-20T21:03:40.019Z,3.30
2022-09-20T21:06:08.924Z,3.13
2022-09-20T21:08:38.534Z,3.40
2022-09-20T21:11:08.509Z,4.30
2022-09-20T21:13:36.654Z,3.10
2022-09-20T21:16:08.784Z,3.43
2022-09-20T21:18:37.093Z,3.37
2022-09-20T21:21:05.985Z,3.20
2022-09-20T21:23:34.939Z,3.13
2022-09-20T21:26:07.788Z,3.20
2022-09-20T21:28:37.530Z,3.40
2022-09-20T21:31:07.577Z,3.07
2022-09-20T21:33:37.502Z,3.10
2022-09-20T21:36:09.090Z,2.87
2022-09-20T21:38:37.562Z,3.37
2022-09-20T21:41:07.494Z,3.40
2022-09-20T21:43:36.276Z,3.17
2022-09-20T21:46:05.090Z,2.77
2022-09-20T21:48:34.554Z,3.10
2022-09-20T21:51:05.126Z,3.30
2022-09-20T21:53:33.768Z,3.57
2022-09-20T21:56:04.251Z,3.13
2022-09-20T21:58:32.166Z,3.10
2022-09-20T22:01:02.571Z,3.87
2022-09-20T22:03:37.021Z,3.77
2022-09-20T22:06:09.719Z,2.80
2022-09-20T22:08:38.412Z,2.63
2022-09-20T22:11:10.222Z,2.93
2022-09-20T22:13:42.287Z,2.93
2022-09-20T22:16:13.498Z,3.07
2022-09-20T22:18:44.471Z,3.73
2022-09-20T22:21:14.284Z,3.00
2022-09-20T22:23:43.105Z,3.10
2022-09-20T22:26:13.667Z,2.90
2022-09-20T22:28:43.106Z,2.97
2022-09-20T22:31:13.492Z,3.00
2022-09-20T22:33:44.693Z,2.93
2022-09-20T22:36:14.435Z,3.27
2022-09-20T22:38:43.804Z,2.77
2022-09-20T22:41:12.402Z,2.93
2022-09-20T22:43:41.685Z,3.33
2022-09-20T22:46:11.138Z,2.90
2022-09-20T22:48:39.867Z,3.10
2022-09-20T22:51:11.773Z,2.80
2022-09-20T22:53:40.377Z,3.10
2022-09-20T22:56:09.838Z,3.00
2022-09-20T22:58:40.783Z,3.40
2022-09-20T23:01:11.439Z,3.00
2022-09-20T23:03:40.633Z,2.90
2022-09-20T23:06:15.147Z,2.87
2022-09-20T23:08:43.331Z,3.10
2022-09-20T23:11:12.044Z,2.97
2022-09-20T23:13:40.076Z,2.80
2022-09-20T23:16:19.262Z,2.80
2022-09-20T23:18:48.254Z,3.10
2022-09-20T23:21:18.503Z,3.03
2022-09-20T23:23:47.801Z,2.67
2022-09-20T23:26:18.529Z,2.70
2022-09-20T23:28:48.023Z,2.80
2022-09-20T23:31:17.485Z,2.77
2022-09-20T23:33:48.158Z,2.67
2022-09-20T23:36:18.242Z,2.60
2022-09-20T23:38:47.149Z,2.70
2022-09-20T23:41:17.536Z,2.63
2022-09-20T23:43:45.914Z,2.43
2022-09-20T23:46:15.939Z,2.63
2022-09-20T23:48:44.316Z,2.43
2022-09-20T23:51:14.679Z,2.70
2022-09-20T23:53:44.544Z,2.53
2022-09-20T23:56:13.635Z,3.00
2022-09-20T23:58:43.001Z,3.00
